首页
METAR-TAF:

METAR-TAF

机场 :

Wausau, 威斯康辛州, 美国

纬度: 44-55-43N, 经度: 089-37-36W, 海拔: 366米

当前天气观测

该预报发布于16分钟前的09:54 UTC
风速8节,风向
温度 17°C
湿度 88%
气压 1009 hPa
能見度: 16.1公里
散云层高于5500英尺
散云层高于7000英尺

METAR: KAUW 160954Z AUTO 09008KT 10SM SCT055 SCT070 17/15 A2981 RMK AO2 LTG DSNT NE-SE RAE31 SLP095 P0024 T01670150

时间: 05:10 (10:10 UTC)

预报

该预报发布于1小时和37分钟前的08:33 UTC
预报有效从16日的 09点(UTC)到 17日的 06点(UTC)
风速11节,风向南转南东
能見度: 4.8公里
多云层高于4000英尺, 积雨云.
雷暴, 雨
从 16日的 1000点(UTC)
风速11节,风向南转南东,有时为20节阵风
能見度: 10公里
阴天层高于4000英尺
短暂存在
从 16日的 12点(UTC)到 16日的 14点(UTC)
能見度: 6.4公里
多云层高于1000英尺
阴天层高于2000英尺, 积雨云.
雷暴, 雨
从 16日的 1400点(UTC)
风速12节,风向,有时为20节阵风
能見度: 10公里
阴天层高于1800英尺
小阵雨
从 16日的 1700点(UTC)
风速12节,风向南转西南,有时为19节阵风
能見度: 10公里
多云层高于1200英尺
从 16日的 2200点(UTC)
风速11节,风向南转西南,有时为18节阵风
能見度: 10公里
散云层高于6000英尺
散云层高于20000英尺
从 17日的 0000点(UTC)
风速10节,风向南转西南
能見度: 10公里
散云层高于5000英尺
散云层高于25000英尺

TAF: KAUW 160833Z 1609/1706 15011KT 3SM TSRA BKN040CB WS020/20040KT FM161000 16011G20KT P6SM OVC040 WS020/20040KT TEMPO 1612/1614 4SM TSRA BKN010 OVC020CB FM161400 17012G20KT P6SM -SHRA OVC018 WS020/20035KT FM161700 21012G19KT P6SM BKN012 FM162200 21011G18KT P6SM SCT060 SCT200 FM170000 21010KT P6SM SCT050 SCT250

超过4000个机场的气象观测和天气预报(METAR&TAF报告)。

可查询的气象台以黄色和红色小点在地图上表示。

将鼠标移到小点上方,可查看气象台名称。

然后点击查看天气观测和预报。

如需切换地图:点击带黑十字的绿色按钮放大地图;点击带横线的绿色按钮缩小地图;或者点击绿色箭头查看邻近地区的地图。


METAR-TAF: